createdAt,value
2023-01-09T00:00:41.576Z,97.1
2023-01-09T00:01:57.856Z,96.9
2023-01-09T00:03:14.148Z,97
2023-01-09T00:04:30.456Z,97.5
2023-01-09T00:05:45.774Z,97.7
2023-01-09T00:07:02.064Z,98
2023-01-09T00:08:17.383Z,98.3
2023-01-09T00:09:33.674Z,98.3
2023-01-09T00:10:49.968Z,98
2023-01-09T00:12:06.253Z,98.1
2023-01-09T00:13:22.547Z,98.2
2023-01-09T00:14:38.849Z,98.3
2023-01-09T00:15:55.141Z,98.4
2023-01-09T00:17:11.446Z,98.4
2023-01-09T00:18:27.738Z,97.9
2023-01-09T00:21:00.316Z,97.9
2023-01-09T00:22:16.608Z,98.1
2023-01-09T00:23:32.921Z,97.9
2023-01-09T00:24:49.206Z,98
2023-01-09T00:26:04.527Z,97.8
2023-01-09T00:27:20.810Z,97.9
2023-01-09T00:28:37.102Z,97.4
2023-01-09T00:29:53.396Z,97.1
2023-01-09T00:31:09.690Z,97.1
2023-01-09T00:32:25.988Z,97.5
2023-01-09T00:33:42.293Z,97.2
2023-01-09T00:34:58.580Z,97
2023-01-09T00:36:14.878Z,97.1
2023-01-09T00:37:31.171Z,97.2
2023-01-09T00:38:46.483Z,97.3
2023-01-09T00:40:02.783Z,97.2
2023-01-09T00:41:19.083Z,97.2
2023-01-09T00:42:35.368Z,97.3
2023-01-09T00:43:51.667Z,97.2
2023-01-09T00:45:07.960Z,97.3
2023-01-09T00:46:24.255Z,97.5
2023-01-09T00:47:40.547Z,97.5
2023-01-09T00:48:56.845Z,97.5
2023-01-09T00:50:13.127Z,97.3
2023-01-09T00:51:29.440Z,97.2
2023-01-09T00:52:45.733Z,97.2
2023-01-09T00:54:02.016Z,97.2
2023-01-09T00:55:17.342Z,97.2
2023-01-09T00:56:33.627Z,97
2023-01-09T00:57:49.934Z,97.2
2023-01-09T00:59:06.228Z,97
2023-01-09T01:00:22.530Z,96.6
2023-01-09T01:01:38.833Z,96.7
2023-01-09T01:02:55.108Z,96.7
2023-01-09T01:04:11.390Z,96.8
2023-01-09T01:05:27.690Z,97
2023-01-09T01:06:43.982Z,97
2023-01-09T01:08:00.276Z,97
2023-01-09T01:09:16.579Z,96.8
2023-01-09T01:10:32.864Z,97.3
2023-01-09T01:11:48.198Z,97.3
2023-01-09T01:13:04.492Z,97.2
2023-01-09T01:14:20.789Z,97
2023-01-09T01:16:53.368Z,96.7
2023-01-09T01:18:09.658Z,96.8
2023-01-09T01:19:25.938Z,96.6
2023-01-09T01:20:42.238Z,96.9
2023-01-09T01:21:58.531Z,96.5
2023-01-09T01:23:14.831Z,96.5
2023-01-09T01:24:31.123Z,96.1
2023-01-09T01:25:47.426Z,96
2023-01-09T01:27:03.703Z,95.8
2023-01-09T01:28:20.002Z,96.4
2023-01-09T01:29:35.335Z,95.9
2023-01-09T01:30:51.627Z,95.8
2023-01-09T01:32:07.929Z,95.7
2023-01-09T01:33:24.209Z,95.5
2023-01-09T01:34:40.504Z,95.8
2023-01-09T01:35:56.792Z,95.4
2023-01-09T01:37:13.083Z,95.8
2023-01-09T01:38:29.382Z,95.4
2023-01-09T01:39:45.683Z,95.1
2023-01-09T01:41:01.965Z,95.4
2023-01-09T01:42:18.274Z,95.3
2023-01-09T01:44:50.861Z,94.8
2023-01-09T01:46:06.180Z,94.6
2023-01-09T01:47:22.477Z,94.4
2023-01-09T01:48:38.749Z,94.5
2023-01-09T01:49:55.062Z,94.4
2023-01-09T01:51:11.361Z,94.3
2023-01-09T01:52:27.630Z,94.5
2023-01-09T01:53:43.943Z,94.1
2023-01-09T01:55:00.237Z,93.9
2023-01-09T01:56:16.512Z,93.9
2023-01-09T01:57:32.817Z,94.2
2023-01-09T01:58:49.121Z,94.2
2023-01-09T02:00:05.415Z,93.8
2023-01-09T02:01:21.697Z,93.9
2023-01-09T02:02:37.021Z,93.5
2023-01-09T02:03:53.307Z,93.5
2023-01-09T02:05:09.619Z,93.7
2023-01-09T02:06:25.900Z,93.5
2023-01-09T02:07:42.210Z,93.6
2023-01-09T02:08:58.491Z,93
2023-01-09T02:10:14.776Z,93.2
2023-01-09T02:11:31.065Z,93
2023-01-09T02:12:47.376Z,93.5
2023-01-09T02:14:03.669Z,93
2023-01-09T02:15:19.949Z,92.8
2023-01-09T02:16:36.255Z,93
2023-01-09T02:17:52.538Z,93
2023-01-09T02:19:07.852Z,93
2023-01-09T02:20:24.164Z,93.2
2023-01-09T02:21:40.439Z,93
2023-01-09T02:22:56.746Z,93
2023-01-09T02:25:29.340Z,92.7
2023-01-09T02:26:45.629Z,92.7
2023-01-09T02:28:01.928Z,93
2023-01-09T02:29:18.212Z,92.7
2023-01-09T02:30:34.513Z,92.4
2023-01-09T02:31:50.807Z,92.7
2023-01-09T02:33:07.107Z,93.2
2023-01-09T02:34:23.386Z,92.5
2023-01-09T02:35:38.704Z,92.5
2023-01-09T02:36:55.001Z,92.3
2023-01-09T02:38:11.294Z,92.3
2023-01-09T02:39:27.590Z,92.5
2023-01-09T02:40:43.879Z,92.6
2023-01-09T02:42:00.173Z,92.6
2023-01-09T02:43:16.473Z,92.2
2023-01-09T02:44:32.741Z,91.9
2023-01-09T02:45:49.061Z,92.4
2023-01-09T02:47:05.352Z,92.6
2023-01-09T02:48:21.642Z,91.9
2023-01-09T02:49:37.945Z,92.1
2023-01-09T02:50:54.249Z,92
2023-01-09T02:52:09.547Z,92.3
2023-01-09T02:53:25.840Z,92.3
2023-01-09T02:54:42.140Z,92.1
2023-01-09T02:55:58.432Z,92.3
2023-01-09T02:57:14.721Z,92.3
2023-01-09T02:58:31.029Z,92.1
2023-01-09T02:59:47.315Z,92.7
2023-01-09T03:01:03.604Z,93
2023-01-09T03:02:19.899Z,93.2
2023-01-09T03:03:36.207Z,93.4
2023-01-09T03:04:52.494Z,93.9
2023-01-09T03:06:08.782Z,94
2023-01-09T03:07:25.079Z,94.7
2023-01-09T03:08:40.405Z,95.3
2023-01-09T03:09:56.699Z,96
2023-01-09T03:11:12.978Z,96.7
2023-01-09T03:12:29.289Z,96.9
2023-01-09T03:15:01.861Z,97.8
2023-01-09T03:16:18.156Z,98.1
2023-01-09T03:17:34.449Z,98.3
2023-01-09T03:18:50.753Z,98.8
2023-01-09T03:20:07.056Z,98.9
2023-01-09T03:21:23.345Z,99
2023-01-09T03:22:39.645Z,99.3
2023-01-09T03:23:55.937Z,99.4
2023-01-09T03:25:11.242Z,99.6
2023-01-09T03:26:27.542Z,99.7
2023-01-09T03:27:43.823Z,99.9
2023-01-09T03:29:00.119Z,100
2023-01-09T03:31:32.726Z,100
2023-01-09T03:32:49.002Z,100
2023-01-09T03:34:05.297Z,100
2023-01-09T03:35:21.591Z,100
2023-01-09T03:36:37.887Z,100
2023-01-09T03:37:54.189Z,100
2023-01-09T03:39:10.483Z,100
2023-01-09T03:40:26.769Z,100
2023-01-09T03:42:58.383Z,100
2023-01-09T03:44:14.682Z,100
2023-01-09T03:45:30.978Z,100
2023-01-09T03:46:47.259Z,100
2023-01-09T03:49:19.861Z,100
2023-01-09T03:50:35.177Z,100
2023-01-09T03:51:50.485Z,100
2023-01-09T03:53:06.767Z,100
2023-01-09T03:54:23.065Z,100
2023-01-09T03:55:39.373Z,100
2023-01-09T03:58:11.954Z,100
2023-01-09T04:00:44.543Z,100
2023-01-09T04:02:00.836Z,100
2023-01-09T04:03:17.138Z,100
2023-01-09T04:04:33.424Z,100
2023-01-09T04:05:49.732Z,100
2023-01-09T04:07:05.035Z,100
2023-01-09T04:08:20.354Z,100
2023-01-09T04:10:52.928Z,100
2023-01-09T04:13:25.527Z,100
2023-01-09T04:14:41.818Z,100
2023-01-09T04:15:58.109Z,100
2023-01-09T04:17:14.414Z,100
2023-01-09T04:18:30.698Z,100
2023-01-09T04:19:47.008Z,100
2023-01-09T04:21:03.304Z,100
2023-01-09T04:22:19.597Z,100
2023-01-09T04:23:35.890Z,100
2023-01-09T04:24:51.198Z,100
2023-01-09T04:26:07.498Z,100
2023-01-09T04:27:23.777Z,100
2023-01-09T04:28:40.078Z,100
2023-01-09T04:29:56.366Z,100
2023-01-09T04:31:12.657Z,100
2023-01-09T04:32:28.953Z,100
2023-01-09T04:33:45.256Z,100
2023-01-09T04:35:01.552Z,100
2023-01-09T04:36:17.836Z,100
2023-01-09T04:38:49.457Z,100
2023-01-09T04:40:04.760Z,100
2023-01-09T04:41:20.075Z,100
2023-01-09T04:42:36.380Z,100
2023-01-09T04:43:52.681Z,100
2023-01-09T04:45:08.964Z,99.9
2023-01-09T04:46:25.254Z,99.9
2023-01-09T04:47:41.548Z,99.8
2023-01-09T04:48:57.855Z,99.7
2023-01-09T04:50:14.151Z,99.7
2023-01-09T04:51:30.433Z,99.7
2023-01-09T04:52:46.731Z,99.7
2023-01-09T04:54:02.060Z,99.6
2023-01-09T04:55:17.369Z,99.6
2023-01-09T04:56:33.662Z,99.6
2023-01-09T04:57:49.961Z,99.6
2023-01-09T04:59:06.250Z,99.6
2023-01-09T05:00:22.548Z,99.5
2023-01-09T05:01:38.846Z,99.7
2023-01-09T05:04:11.431Z,99.5
2023-01-09T05:05:27.714Z,99.6
2023-01-09T05:06:44.020Z,99.5
2023-01-09T05:08:00.311Z,99.3
2023-01-09T05:09:16.616Z,99.2
2023-01-09T05:10:32.893Z,99.2
2023-01-09T05:11:49.198Z,99.1
2023-01-09T05:13:04.505Z,99
2023-01-09T05:14:20.789Z,98.9
2023-01-09T05:16:53.394Z,98.7
2023-01-09T05:18:08.696Z,98.5
2023-01-09T05:19:24.003Z,98.5
2023-01-09T05:20:40.307Z,98.7
2023-01-09T05:21:56.610Z,98.7
2023-01-09T05:23:12.896Z,98.4
2023-01-09T05:24:29.193Z,98.2
2023-01-09T05:25:45.485Z,98.5
2023-01-09T05:27:01.768Z,98.3
2023-01-09T05:28:18.066Z,98.3
2023-01-09T05:29:34.355Z,98.2
2023-01-09T05:30:50.670Z,98.2
2023-01-09T05:32:05.976Z,98.2
2023-01-09T05:33:21.285Z,98.4
2023-01-09T05:34:37.586Z,98
2023-01-09T05:35:53.867Z,98.1
2023-01-09T05:37:10.171Z,98.1
2023-01-09T05:38:26.474Z,98.2
2023-01-09T05:39:42.762Z,98
2023-01-09T05:40:59.055Z,98
2023-01-09T05:42:15.351Z,98
2023-01-09T05:43:31.641Z,97.8
2023-01-09T05:44:47.927Z,98
2023-01-09T05:46:04.239Z,98
2023-01-09T05:47:20.517Z,97.7
2023-01-09T05:48:36.817Z,97.8
2023-01-09T05:49:52.122Z,97.8
2023-01-09T05:51:08.422Z,97.9
2023-01-09T05:52:24.714Z,97.8
2023-01-09T05:53:41.009Z,97.7
2023-01-09T05:54:57.311Z,97.7
2023-01-09T05:56:13.603Z,98
2023-01-09T05:57:29.890Z,97.8
2023-01-09T05:58:46.196Z,97.8
2023-01-09T06:00:02.477Z,97.9
2023-01-09T06:01:18.783Z,97.9
2023-01-09T06:02:35.072Z,97.8
2023-01-09T06:03:51.367Z,97.8
2023-01-09T06:05:07.663Z,97.4
2023-01-09T06:06:22.976Z,97.6
2023-01-09T06:07:39.263Z,97.5
2023-01-09T06:08:55.553Z,97.7
2023-01-09T06:10:11.866Z,97.7
2023-01-09T06:11:28.159Z,97.4
2023-01-09T06:12:44.441Z,97.5
2023-01-09T06:14:00.736Z,97.6
2023-01-09T06:15:17.041Z,97.4
2023-01-09T06:16:33.336Z,96.9
2023-01-09T06:17:49.613Z,96.9
2023-01-09T06:19:05.925Z,96.4
2023-01-09T06:20:22.209Z,96.3
2023-01-09T06:21:38.510Z,96.6
2023-01-09T06:22:53.823Z,96.8
2023-01-09T06:24:10.119Z,96.7
2023-01-09T06:25:26.404Z,96.3
2023-01-09T06:26:42.698Z,96.2
2023-01-09T06:27:59.002Z,96.4
2023-01-09T06:29:15.285Z,96
2023-01-09T06:30:31.579Z,95.9
2023-01-09T06:31:47.876Z,96
2023-01-09T06:33:04.176Z,96.1
2023-01-09T06:34:20.464Z,96.1
2023-01-09T06:35:36.760Z,95.9
2023-01-09T06:36:53.050Z,96
2023-01-09T06:38:09.285Z,95.9
2023-01-09T06:39:24.562Z,95.8
2023-01-09T06:41:57.046Z,95.8
2023-01-09T06:43:13.281Z,95.7
2023-01-09T06:44:29.515Z,95.8
2023-01-09T06:45:45.772Z,95.9
2023-01-09T06:47:02.016Z,96.1
2023-01-09T06:49:34.493Z,95.9
2023-01-09T06:50:50.727Z,95.9
2023-01-09T06:52:06.978Z,96
2023-01-09T06:53:23.205Z,95.8
2023-01-09T06:54:39.452Z,95.9
2023-01-09T06:57:10.946Z,96.1
2023-01-09T06:58:26.198Z,96.3
2023-01-09T06:59:41.461Z,96.4
2023-01-09T07:00:57.695Z,96.6
2023-01-09T07:02:13.941Z,96.5
2023-01-09T07:03:30.184Z,96.3
2023-01-09T07:04:46.430Z,96.3
2023-01-09T07:06:02.669Z,96.2
2023-01-09T07:07:18.915Z,96.2
2023-01-09T07:08:35.154Z,96.2
2023-01-09T07:11:07.634Z,96
2023-01-09T07:12:23.866Z,95.8
2023-01-09T07:13:40.105Z,96
2023-01-09T07:14:56.345Z,95.9
2023-01-09T07:16:11.619Z,95.5
2023-01-09T07:17:27.859Z,95.6
2023-01-09T07:18:44.096Z,95.5
2023-01-09T07:20:00.327Z,95.6
2023-01-09T07:21:16.563Z,95.5
2023-01-09T07:22:32.803Z,95.4
2023-01-09T07:23:49.043Z,95.3
2023-01-09T07:25:05.290Z,95.4
2023-01-09T07:26:20.555Z,95.8
2023-01-09T07:27:35.801Z,95.7
2023-01-09T07:28:52.056Z,95.4
2023-01-09T07:30:08.287Z,95.6
2023-01-09T07:31:24.536Z,95.5
2023-01-09T07:32:40.776Z,95.6
2023-01-09T07:33:57.016Z,95.5
2023-01-09T07:35:13.253Z,95.5
2023-01-09T07:36:29.498Z,95.4
2023-01-09T07:37:45.736Z,95.4
2023-01-09T07:39:01.962Z,95.5
2023-01-09T07:40:18.205Z,95.7
2023-01-09T07:41:34.450Z,95.5
2023-01-09T07:42:50.691Z,95.4
2023-01-09T07:44:06.944Z,94.9
2023-01-09T07:45:22.189Z,95.1
2023-01-09T07:46:38.429Z,95.6
2023-01-09T07:47:54.662Z,95.5
2023-01-09T07:49:10.909Z,95.7
2023-01-09T07:50:27.156Z,95.5
2023-01-09T07:51:43.388Z,95.7
2023-01-09T07:52:59.636Z,95.5
2023-01-09T07:54:15.864Z,95.3
2023-01-09T07:55:32.104Z,95.6
2023-01-09T07:56:48.356Z,95.9
2023-01-09T07:58:04.588Z,95.6
2023-01-09T07:59:20.836Z,95.4
2023-01-09T08:00:37.066Z,95.3
2023-01-09T08:01:52.335Z,95.6
2023-01-09T08:03:08.558Z,95.6
2023-01-09T08:04:24.809Z,95.6
2023-01-09T08:05:41.037Z,95.6
2023-01-09T08:06:57.283Z,95.4
2023-01-09T08:08:13.521Z,95.3
2023-01-09T08:09:29.778Z,95.5
2023-01-09T08:10:46.014Z,95.7
2023-01-09T08:12:02.000Z,95.4
2023-01-09T08:13:18.486Z,95.2
2023-01-09T08:14:34.726Z,95.2
2023-01-09T08:15:50.960Z,95.5
2023-01-09T08:17:07.202Z,95.4
2023-01-09T08:18:22.476Z,95
2023-01-09T08:19:38.700Z,94.7
2023-01-09T08:20:54.943Z,94.7
2023-01-09T08:22:11.185Z,94.9
2023-01-09T08:23:27.418Z,94.8
2023-01-09T08:24:43.674Z,94.7
2023-01-09T08:25:59.900Z,94.9
2023-01-09T08:27:16.140Z,94.9
2023-01-09T08:28:32.395Z,94.7
2023-01-09T08:29:48.632Z,94.6
2023-01-09T08:31:04.872Z,94.7
2023-01-09T08:32:21.119Z,94.5
2023-01-09T08:33:37.349Z,94.7
2023-01-09T08:34:53.581Z,94.4
2023-01-09T08:36:08.852Z,94.6
2023-01-09T08:38:41.325Z,94
2023-01-09T08:39:57.571Z,93.9
2023-01-09T08:41:13.805Z,94
2023-01-09T08:43:46.298Z,94
2023-01-09T08:45:02.533Z,93.5
2023-01-09T08:46:18.769Z,93.2
2023-01-09T08:47:35.009Z,93.6
2023-01-09T08:48:51.249Z,93.2
2023-01-09T08:50:07.490Z,93.4
2023-01-09T08:51:23.726Z,93.2
2023-01-09T08:52:38.986Z,92.8
2023-01-09T08:53:55.232Z,92.6
2023-01-09T08:55:11.463Z,91.8
2023-01-09T08:56:27.707Z,92
2023-01-09T08:57:43.952Z,91.6
2023-01-09T08:59:00.199Z,91.7
2023-01-09T09:00:16.429Z,92
2023-01-09T09:01:32.662Z,92.2
2023-01-09T09:02:48.908Z,91.8
2023-01-09T09:04:05.148Z,91.7
2023-01-09T09:05:21.396Z,91.5
2023-01-09T09:06:37.632Z,91.5
2023-01-09T09:07:53.862Z,91.5
2023-01-09T09:09:09.137Z,91.5
2023-01-09T09:10:25.376Z,91.6
2023-01-09T09:11:41.607Z,91.4
2023-01-09T09:12:57.860Z,91.3
2023-01-09T09:14:14.097Z,91.7
2023-01-09T09:15:30.343Z,91.7
2023-01-09T09:16:46.575Z,91.9
2023-01-09T09:18:02.820Z,91.6
2023-01-09T09:19:19.062Z,92.2
2023-01-09T09:20:35.305Z,91.9
2023-01-09T09:21:51.536Z,91.2
2023-01-09T09:23:07.783Z,91.1
2023-01-09T09:24:24.022Z,91.2
2023-01-09T09:25:40.248Z,91.1
2023-01-09T09:26:55.521Z,91
2023-01-09T09:28:11.747Z,90.8
2023-01-09T09:29:27.994Z,90.9
2023-01-09T09:30:44.235Z,90.8
2023-01-09T09:32:00.472Z,90.3
2023-01-09T09:33:16.706Z,89.7
2023-01-09T09:34:32.951Z,89.4
2023-01-09T09:35:49.187Z,89.4
2023-01-09T09:38:21.663Z,89.3
2023-01-09T09:39:37.909Z,89.8
2023-01-09T09:40:54.158Z,89.8
2023-01-09T09:42:10.382Z,89.3
2023-01-09T09:43:25.650Z,89.6
2023-01-09T09:44:41.889Z,89.3
2023-01-09T09:45:58.126Z,88.9
2023-01-09T09:47:14.376Z,88.7
2023-01-09T09:48:30.599Z,88.8
2023-01-09T09:51:03.083Z,88.7
2023-01-09T09:53:35.568Z,88.1
2023-01-09T09:56:07.065Z,88.3
2023-01-09T09:57:22.333Z,88.6
2023-01-09T09:58:37.596Z,88.7
2023-01-09T09:59:53.832Z,88.6
2023-01-09T10:01:10.072Z,88.3
2023-01-09T10:02:26.309Z,88.2
2023-01-09T10:03:42.557Z,88.5
2023-01-09T10:04:58.787Z,88.6
2023-01-09T10:07:31.261Z,88
2023-01-09T10:08:47.505Z,88.3
2023-01-09T10:10:03.744Z,88.2
2023-01-09T10:11:19.989Z,88.7
2023-01-09T10:12:36.220Z,89.1
2023-01-09T10:13:52.465Z,87.6
2023-01-09T10:15:07.716Z,87.7
2023-01-09T10:16:23.970Z,88.5
2023-01-09T10:17:40.214Z,87.1
2023-01-09T10:18:56.451Z,87.1
2023-01-09T10:20:12.694Z,86.6
2023-01-09T10:21:28.923Z,85.4
2023-01-09T10:22:45.168Z,86.1
2023-01-09T10:24:01.401Z,85.8
2023-01-09T10:25:16.660Z,85.5
2023-01-09T10:26:31.931Z,84.7
2023-01-09T10:27:48.164Z,85.1
2023-01-09T10:29:04.409Z,85
2023-01-09T10:30:20.640Z,85.3
2023-01-09T10:31:36.874Z,85.8
2023-01-09T10:32:53.131Z,85
2023-01-09T10:34:09.358Z,84.6
2023-01-09T10:35:25.591Z,82.9
2023-01-09T10:36:41.839Z,82.5
2023-01-09T10:37:58.077Z,82.8
2023-01-09T10:39:14.314Z,81.8
2023-01-09T10:40:30.558Z,81.9
2023-01-09T10:41:46.791Z,80.7
2023-01-09T10:43:02.059Z,78.3
2023-01-09T10:44:18.287Z,77.5
2023-01-09T10:45:34.540Z,77.7
2023-01-09T10:46:50.779Z,77.5
2023-01-09T10:48:07.022Z,78
2023-01-09T10:49:23.263Z,78.5
2023-01-09T10:50:39.497Z,78.7
2023-01-09T10:51:55.747Z,79.1
2023-01-09T10:53:11.968Z,79.7
2023-01-09T10:54:28.219Z,80.2
2023-01-09T10:55:44.456Z,79.9
2023-01-09T10:57:00.707Z,79.4
2023-01-09T10:58:16.929Z,78.6
2023-01-09T10:59:32.199Z,77.4
2023-01-09T11:00:48.430Z,77.7
2023-01-09T11:02:04.670Z,76.5
2023-01-09T11:03:20.919Z,76.5
2023-01-09T11:04:37.159Z,74.9
2023-01-09T11:05:53.391Z,74.7
2023-01-09T11:07:09.639Z,75.6
2023-01-09T11:08:25.877Z,76.6
2023-01-09T11:09:42.113Z,77.3
2023-01-09T11:10:58.000Z,75.5
2023-01-09T11:12:14.599Z,76.3
2023-01-09T11:13:30.836Z,76.2
2023-01-09T11:14:47.069Z,75.8
2023-01-09T11:16:02.337Z,75
2023-01-09T11:17:18.574Z,75.7
2023-01-09T11:18:34.810Z,75.9
2023-01-09T11:19:51.058Z,75.2
2023-01-09T11:21:07.289Z,75.6
2023-01-09T11:22:23.531Z,74
2023-01-09T11:24:55.999Z,74
2023-01-09T11:26:12.238Z,74
2023-01-09T11:27:28.479Z,73.4
2023-01-09T11:28:44.718Z,73.1
2023-01-09T11:30:00.969Z,73
2023-01-09T11:31:17.197Z,73
2023-01-09T11:32:33.454Z,72.9
2023-01-09T11:33:48.697Z,72.9
2023-01-09T11:35:04.941Z,72.9
2023-01-09T11:36:21.174Z,73.4
2023-01-09T11:37:37.424Z,73.6
2023-01-09T11:38:53.667Z,73.9
2023-01-09T11:40:09.893Z,72.7
2023-01-09T11:41:26.153Z,72.3
2023-01-09T11:42:42.381Z,72.9
2023-01-09T11:43:58.627Z,73.4
2023-01-09T11:46:31.107Z,73
2023-01-09T11:47:47.346Z,72.7
2023-01-09T11:49:03.583Z,72.6
2023-01-09T11:50:18.847Z,72.4
2023-01-09T11:51:35.079Z,72.8
2023-01-09T11:52:51.328Z,72.9
2023-01-09T11:54:07.552Z,73.5
2023-01-09T11:55:23.809Z,73.8
2023-01-09T11:56:40.048Z,73.9
2023-01-09T11:57:56.276Z,74.2
2023-01-09T12:00:28.760Z,74.2
2023-01-09T12:01:45.000Z,74.7
2023-01-09T12:03:01.230Z,75.2
2023-01-09T12:04:17.474Z,74.3
2023-01-09T12:05:33.715Z,73.8
2023-01-09T12:06:48.967Z,73.5
2023-01-09T12:08:05.210Z,73.1
2023-01-09T12:09:21.458Z,73.5
2023-01-09T12:10:37.700Z,73.4
2023-01-09T12:11:53.933Z,74.2
2023-01-09T12:13:10.174Z,75.1
2023-01-09T12:14:26.416Z,74
2023-01-09T12:15:42.653Z,74.7
2023-01-09T12:16:58.903Z,73.9
2023-01-09T12:18:15.135Z,74
2023-01-09T12:19:31.365Z,74.1
2023-01-09T12:20:47.624Z,74.5
2023-01-09T12:22:03.853Z,74.9
2023-01-09T12:23:20.221Z,73.8
2023-01-09T12:24:36.464Z,73.9
2023-01-09T12:27:08.936Z,72.5
2023-01-09T12:28:25.184Z,73.4
2023-01-09T12:29:41.419Z,73.1
2023-01-09T12:30:57.650Z,73.8
2023-01-09T12:32:13.892Z,72.5
2023-01-09T12:33:30.129Z,73.7
2023-01-09T12:34:46.370Z,73.7
2023-01-09T12:37:18.852Z,73.1
2023-01-09T12:38:35.086Z,75.1
2023-01-09T12:39:50.355Z,74.4
2023-01-09T12:41:06.587Z,73.8
2023-01-09T12:42:22.839Z,73.9
2023-01-09T12:43:39.079Z,73.5
2023-01-09T12:44:55.305Z,75
2023-01-09T12:46:11.541Z,73.9
2023-01-09T12:47:27.782Z,73.4
2023-01-09T12:48:44.038Z,74.3
2023-01-09T12:50:00.273Z,74.4
2023-01-09T12:51:16.520Z,73.5
2023-01-09T12:52:32.759Z,74.1
2023-01-09T12:55:05.234Z,74.4
2023-01-09T12:56:20.467Z,75.7
2023-01-09T12:57:36.700Z,75.2
2023-01-09T12:58:52.944Z,75
2023-01-09T13:00:09.183Z,73
2023-01-09T13:01:25.423Z,73.1
2023-01-09T13:02:41.652Z,73.8
2023-01-09T13:03:57.907Z,74.5
2023-01-09T13:05:14.139Z,74.5
2023-01-09T13:06:30.378Z,75
2023-01-09T13:07:46.623Z,75.4
2023-01-09T13:09:02.858Z,75.3
2023-01-09T13:10:19.109Z,75.5
2023-01-09T13:11:35.346Z,76
2023-01-09T13:12:50.608Z,75.6
2023-01-09T13:14:06.837Z,75.8
2023-01-09T13:15:23.086Z,75.7
2023-01-09T13:16:39.320Z,75.9
2023-01-09T13:17:55.562Z,75.7
2023-01-09T13:19:11.787Z,76.2
2023-01-09T13:20:28.029Z,76.5
2023-01-09T13:21:44.272Z,76.3
2023-01-09T13:23:00.520Z,77.4
2023-01-09T13:24:15.771Z,76.3
2023-01-09T13:25:32.028Z,75.8
2023-01-09T13:26:48.248Z,76.4
2023-01-09T13:28:04.496Z,77.4
2023-01-09T13:29:20.730Z,77.2
2023-01-09T13:30:36.988Z,75.6
2023-01-09T13:31:53.224Z,77
2023-01-09T13:33:09.467Z,76.2
2023-01-09T13:34:25.702Z,76.4
2023-01-09T13:35:41.945Z,76.6
2023-01-09T13:36:58.173Z,76.1
2023-01-09T13:38:14.423Z,76.5
2023-01-09T13:39:30.652Z,76.8
2023-01-09T13:40:45.911Z,77
2023-01-09T13:42:02.146Z,76.6
2023-01-09T13:43:18.386Z,77.6
2023-01-09T13:44:34.637Z,76.8
2023-01-09T13:45:50.865Z,76.2
2023-01-09T13:47:07.110Z,76.8
2023-01-09T13:48:23.363Z,77.4
2023-01-09T13:49:39.593Z,77.1
2023-01-09T13:50:55.837Z,76.4
2023-01-09T13:52:12.074Z,76.8
2023-01-09T13:53:28.323Z,76.3
2023-01-09T13:54:44.557Z,77
2023-01-09T13:56:00.801Z,77.6
2023-01-09T13:57:16.054Z,77.8
2023-01-09T13:58:32.285Z,78.4
2023-01-09T13:59:48.538Z,77.7
2023-01-09T14:01:04.765Z,78.3
2023-01-09T14:02:21.006Z,78.5
2023-01-09T14:03:37.252Z,78.7
2023-01-09T14:06:09.733Z,78.2
2023-01-09T14:07:25.000Z,78.7
2023-01-09T14:08:42.198Z,78.5
2023-01-09T14:09:58.455Z,78.8
2023-01-09T14:11:14.696Z,78.6
2023-01-09T14:12:30.920Z,78.5
2023-01-09T14:13:46.184Z,79
2023-01-09T14:15:02.428Z,78.1
2023-01-09T14:16:18.663Z,78.2
2023-01-09T14:17:34.907Z,77.6
2023-01-09T14:18:51.152Z,77.6
2023-01-09T14:20:07.377Z,77.7
2023-01-09T14:21:23.631Z,77.2
2023-01-09T14:22:39.861Z,77.7
2023-01-09T14:23:56.113Z,76.8
2023-01-09T14:26:28.592Z,77
2023-01-09T14:27:44.829Z,77.1
2023-01-09T14:29:01.074Z,77.7
2023-01-09T14:30:16.313Z,78.2
2023-01-09T14:31:32.556Z,77.9
2023-01-09T14:32:48.813Z,78.1
2023-01-09T14:34:05.032Z,77.9
2023-01-09T14:35:21.280Z,78.3
2023-01-09T14:36:37.513Z,78.6
2023-01-09T14:37:53.758Z,78.1
2023-01-09T14:39:10.007Z,78.2
2023-01-09T14:40:26.252Z,78.4
2023-01-09T14:41:42.476Z,78.4
2023-01-09T14:42:58.712Z,78.4
2023-01-09T14:44:14.955Z,78.3
2023-01-09T14:45:31.199Z,78.5
2023-01-09T14:46:46.458Z,78.9
2023-01-09T14:48:02.702Z,79.2
2023-01-09T14:49:18.940Z,79.3
2023-01-09T14:50:35.188Z,79.8
2023-01-09T14:51:51.427Z,79.8
2023-01-09T14:53:07.661Z,79.7
2023-01-09T14:54:23.909Z,79.9
2023-01-09T14:55:40.129Z,80.3
2023-01-09T14:56:56.390Z,80.8
2023-01-09T14:58:12.618Z,80.7
2023-01-09T14:59:28.856Z,81
2023-01-09T15:00:45.102Z,81
2023-01-09T15:02:01.346Z,81.5
2023-01-09T15:03:16.609Z,81.5
2023-01-09T15:04:32.833Z,81.8
2023-01-09T15:05:49.079Z,81.7
2023-01-09T15:07:05.314Z,82.3
2023-01-09T15:08:21.564Z,82.2
2023-01-09T15:09:37.798Z,82.9
2023-01-09T15:10:54.039Z,83.2
2023-01-09T15:12:10.291Z,83
2023-01-09T15:13:26.530Z,83.4
2023-01-09T15:14:42.764Z,83.7
2023-01-09T15:15:58.994Z,83.5
2023-01-09T15:17:15.237Z,83.8
2023-01-09T15:18:31.492Z,83.9
2023-01-09T15:19:46.739Z,83.8
2023-01-09T15:21:02.979Z,84.7
2023-01-09T15:22:19.220Z,84.4
2023-01-09T15:23:35.456Z,84.2
2023-01-09T15:24:51.709Z,84.3
2023-01-09T15:26:07.000Z,84.8
2023-01-09T15:27:24.190Z,84.6
2023-01-09T15:28:40.430Z,84.9
2023-01-09T15:29:56.669Z,84.9
2023-01-09T15:31:12.906Z,85.5
2023-01-09T15:32:29.143Z,85.3
2023-01-09T15:33:45.391Z,85.7
2023-01-09T15:35:01.621Z,86
2023-01-09T15:36:17.878Z,86.2
2023-01-09T15:37:33.124Z,86.8
2023-01-09T15:38:49.369Z,86.7
2023-01-09T15:40:05.606Z,87
2023-01-09T15:41:21.839Z,87
2023-01-09T15:42:38.099Z,86.8
2023-01-09T15:43:54.340Z,87.2
2023-01-09T15:45:10.576Z,87.5
2023-01-09T15:46:26.805Z,87.4
2023-01-09T15:47:43.062Z,87.6
2023-01-09T15:48:59.285Z,88.2
2023-01-09T15:50:15.536Z,88.3
2023-01-09T15:51:31.779Z,88.3
2023-01-09T15:52:48.023Z,88.4
2023-01-09T15:54:03.278Z,88.8
2023-01-09T15:55:19.516Z,88.7
2023-01-09T15:56:35.760Z,88.3
2023-01-09T15:57:51.997Z,89.2
2023-01-09T15:59:08.224Z,89
2023-01-09T16:00:24.525Z,88.9
2023-01-09T16:01:40.832Z,89.1
2023-01-09T16:02:57.108Z,89.3
2023-01-09T16:04:13.413Z,89.4
2023-01-09T16:05:29.714Z,89.1
2023-01-09T16:06:46.010Z,89.3
2023-01-09T16:08:02.305Z,89.4
2023-01-09T16:09:18.600Z,89.3
2023-01-09T16:10:33.897Z,90.2
2023-01-09T16:11:50.197Z,89.9
2023-01-09T16:13:06.486Z,90.2
2023-01-09T16:15:39.079Z,90.3
2023-01-09T16:16:55.372Z,90.1
2023-01-09T16:18:11.661Z,90.5
2023-01-09T16:19:27.959Z,90.8
2023-01-09T16:20:44.264Z,90.4
2023-01-09T16:22:00.561Z,90.9
2023-01-09T16:23:16.849Z,90.9
2023-01-09T16:24:33.145Z,91
2023-01-09T16:25:49.436Z,90.8
2023-01-09T16:27:04.745Z,90.8
2023-01-09T16:28:21.052Z,90.7
2023-01-09T16:29:37.337Z,90.8
2023-01-09T16:30:53.626Z,91
2023-01-09T16:32:09.932Z,90.9
2023-01-09T16:33:26.220Z,90.8
2023-01-09T16:34:42.519Z,90.7
2023-01-09T16:35:58.818Z,90.3
2023-01-09T16:37:15.111Z,90.3
2023-01-09T16:38:31.403Z,90.2
2023-01-09T16:39:47.704Z,90.3
2023-01-09T16:41:03.983Z,90.1
2023-01-09T16:42:20.291Z,90.1
2023-01-09T16:43:35.602Z,89.9
2023-01-09T16:44:51.884Z,89.9
2023-01-09T16:46:08.179Z,90
2023-01-09T16:47:24.483Z,90
2023-01-09T16:48:40.784Z,90
2023-01-09T16:51:13.314Z,90.5
2023-01-09T16:52:29.617Z,90.2
2023-01-09T16:53:45.922Z,90.4
2023-01-09T16:55:02.203Z,90.5
2023-01-09T16:56:18.498Z,90.8
2023-01-09T16:57:34.800Z,90.5
2023-01-09T16:58:51.100Z,90.8
2023-01-09T17:00:07.396Z,91
2023-01-09T17:01:22.697Z,90.5
2023-01-09T17:02:38.993Z,90.5
2023-01-09T17:03:55.284Z,90.7
2023-01-09T17:06:27.874Z,90.8
2023-01-09T17:07:44.179Z,90.4
2023-01-09T17:09:00.462Z,90.7
2023-01-09T17:10:16.764Z,90.8
2023-01-09T17:11:33.046Z,90.7
2023-01-09T17:12:49.352Z,90.7
2023-01-09T17:14:05.652Z,90.5
2023-01-09T17:15:21.946Z,90.8
2023-01-09T17:16:38.222Z,90.8
2023-01-09T17:17:54.519Z,90.7
2023-01-09T17:19:09.843Z,90.3
2023-01-09T17:20:26.139Z,90.4
2023-01-09T17:21:42.429Z,90.5
2023-01-09T17:22:58.712Z,90.5
2023-01-09T17:24:15.022Z,90.2
2023-01-09T17:25:31.306Z,90.3
2023-01-09T17:26:47.596Z,90.4
2023-01-09T17:28:03.906Z,90.1
2023-01-09T17:29:20.189Z,90.3
2023-01-09T17:30:36.487Z,89.9
2023-01-09T17:31:52.783Z,89.5
2023-01-09T17:33:09.084Z,89.6
2023-01-09T17:34:25.376Z,89.7
2023-01-09T17:35:40.680Z,89.5
2023-01-09T17:36:56.981Z,89.5
2023-01-09T17:38:13.281Z,89.4
2023-01-09T17:39:28.597Z,89.4
2023-01-09T17:40:44.884Z,89.5
2023-01-09T17:42:01.189Z,89.7
2023-01-09T17:44:33.763Z,89.7
2023-01-09T17:45:50.066Z,89.9
2023-01-09T17:47:06.361Z,90.1
2023-01-09T17:48:22.644Z,89.9
2023-01-09T17:49:38.939Z,90.2
2023-01-09T17:50:55.245Z,90.1